sensor_id;sensor_type;location;lat;lon;timestamp;P1;durP1;ratioP1;P2;durP2;ratioP2
42134;SDS011;28312;43.460;11.810;2022-11-28T00:00:54;4.78;;;2.65;;
42134;SDS011;28312;43.460;11.810;2022-11-28T00:04:58;2.65;;;1.60;;
42134;SDS011;28312;43.460;11.810;2022-11-28T00:09:01;2.05;;;1.42;;
42134;SDS011;28312;43.460;11.810;2022-11-28T00:13:06;1.80;;;1.27;;
42134;SDS011;28312;43.460;11.810;2022-11-28T00:17:10;3.30;;;1.35;;
42134;SDS011;28312;43.460;11.810;2022-11-28T00:21:16;1.60;;;1.20;;
42134;SDS011;28312;43.460;11.810;2022-11-28T00:25:23;2.67;;;1.38;;
42134;SDS011;28312;43.460;11.810;2022-11-28T00:29:26;4.93;;;2.60;;
42134;SDS011;28312;43.460;11.810;2022-11-28T00:33:31;2.20;;;1.33;;
42134;SDS011;28312;43.460;11.810;2022-11-28T00:37:35;2.20;;;1.50;;
42134;SDS011;28312;43.460;11.810;2022-11-28T00:41:39;2.25;;;1.20;;
42134;SDS011;28312;43.460;11.810;2022-11-28T00:45:44;2.40;;;1.48;;
42134;SDS011;28312;43.460;11.810;2022-11-28T00:49:49;3.10;;;1.67;;
42134;SDS011;28312;43.460;11.810;2022-11-28T00:53:54;3.88;;;1.73;;
42134;SDS011;28312;43.460;11.810;2022-11-28T00:57:59;2.83;;;1.30;;
42134;SDS011;28312;43.460;11.810;2022-11-28T01:02:03;3.47;;;1.90;;
42134;SDS011;28312;43.460;11.810;2022-11-28T01:06:07;2.67;;;1.70;;
42134;SDS011;28312;43.460;11.810;2022-11-28T01:10:11;2.10;;;1.40;;
42134;SDS011;28312;43.460;11.810;2022-11-28T01:14:15;2.50;;;1.80;;
42134;SDS011;28312;43.460;11.810;2022-11-28T01:18:23;3.45;;;2.65;;
42134;SDS011;28312;43.460;11.810;2022-11-28T01:22:26;3.53;;;1.58;;
42134;SDS011;28312;43.460;11.810;2022-11-28T01:26:30;3.53;;;2.28;;
42134;SDS011;28312;43.460;11.810;2022-11-28T01:30:33;3.25;;;2.40;;
42134;SDS011;28312;43.460;11.810;2022-11-28T01:34:40;3.95;;;2.28;;
42134;SDS011;28312;43.460;11.810;2022-11-28T01:38:44;2.25;;;1.50;;
42134;SDS011;28312;43.460;11.810;2022-11-28T01:42:48;2.95;;;2.55;;
42134;SDS011;28312;43.460;11.810;2022-11-28T01:46:52;1.90;;;1.40;;
42134;SDS011;28312;43.460;11.810;2022-11-28T01:51:00;2.65;;;1.38;;
42134;SDS011;28312;43.460;11.810;2022-11-28T01:55:04;2.70;;;1.65;;
42134;SDS011;28312;43.460;11.810;2022-11-28T01:59:10;1.55;;;0.82;;
42134;SDS011;28312;43.460;11.810;2022-11-28T02:03:18;2.67;;;1.48;;
42134;SDS011;28312;43.460;11.810;2022-11-28T02:07:33;2.80;;;1.90;;
42134;SDS011;28312;43.460;11.810;2022-11-28T02:11:48;3.60;;;2.15;;
42134;SDS011;28312;43.460;11.810;2022-11-28T02:16:04;2.88;;;1.85;;
42134;SDS011;28312;43.460;11.810;2022-11-28T02:25:32;2.58;;;2.00;;
42134;SDS011;28312;43.460;11.810;2022-11-28T02:34:15;2.55;;;1.38;;
42134;SDS011;28312;43.460;11.810;2022-11-28T02:42:46;3.10;;;1.38;;
42134;SDS011;28312;43.460;11.810;2022-11-28T02:47:07;2.67;;;1.50;;
42134;SDS011;28312;43.460;11.810;2022-11-28T02:51:26;2.65;;;1.67;;
42134;SDS011;28312;43.460;11.810;2022-11-28T02:55:51;2.05;;;1.40;;
42134;SDS011;28312;43.460;11.810;2022-11-28T02:59:55;1.85;;;1.30;;
42134;SDS011;28312;43.460;11.810;2022-11-28T03:04:02;2.22;;;1.27;;
42134;SDS011;28312;43.460;11.810;2022-11-28T03:08:25;2.97;;;2.10;;
42134;SDS011;28312;43.460;11.810;2022-11-28T03:30:23;1.65;;;1.23;;
42134;SDS011;28312;43.460;11.810;2022-11-28T03:34:36;2.22;;;1.45;;
42134;SDS011;28312;43.460;11.810;2022-11-28T03:38:45;1.50;;;1.10;;
42134;SDS011;28312;43.460;11.810;2022-11-28T03:43:06;2.13;;;1.50;;
42134;SDS011;28312;43.460;11.810;2022-11-28T03:47:13;1.90;;;1.30;;
42134;SDS011;28312;43.460;11.810;2022-11-28T03:55:24;2.10;;;1.08;;
42134;SDS011;28312;43.460;11.810;2022-11-28T03:59:43;2.08;;;1.40;;
42134;SDS011;28312;43.460;11.810;2022-11-28T04:04:02;2.75;;;1.90;;
42134;SDS011;28312;43.460;11.810;2022-11-28T04:12:52;2.33;;;1.20;;
42134;SDS011;28312;43.460;11.810;2022-11-28T04:17:09;1.65;;;1.00;;
42134;SDS011;28312;43.460;11.810;2022-11-28T04:21:32;2.05;;;1.50;;
42134;SDS011;28312;43.460;11.810;2022-11-28T04:25:44;1.60;;;1.17;;
42134;SDS011;28312;43.460;11.810;2022-11-28T04:29:57;2.95;;;1.33;;
42134;SDS011;28312;43.460;11.810;2022-11-28T04:34:06;1.85;;;1.42;;
42134;SDS011;28312;43.460;11.810;2022-11-28T04:38:13;3.35;;;1.60;;
42134;SDS011;28312;43.460;11.810;2022-11-28T04:42:20;2.67;;;1.70;;
42134;SDS011;28312;43.460;11.810;2022-11-28T04:46:34;2.83;;;1.55;;
42134;SDS011;28312;43.460;11.810;2022-11-28T04:50:46;2.28;;;1.27;;
42134;SDS011;28312;43.460;11.810;2022-11-28T04:55:00;1.95;;;1.45;;
42134;SDS011;28312;43.460;11.810;2022-11-28T04:59:24;2.15;;;1.52;;
42134;SDS011;28312;43.460;11.810;2022-11-28T05:03:30;2.25;;;1.45;;
42134;SDS011;28312;43.460;11.810;2022-11-28T05:07:35;1.65;;;1.15;;
42134;SDS011;28312;43.460;11.810;2022-11-28T05:11:40;1.25;;;0.80;;
42134;SDS011;28312;43.460;11.810;2022-11-28T05:15:43;1.15;;;0.82;;
42134;SDS011;28312;43.460;11.810;2022-11-28T05:19:47;1.80;;;1.05;;
42134;SDS011;28312;43.460;11.810;2022-11-28T05:23:51;1.77;;;1.02;;
42134;SDS011;28312;43.460;11.810;2022-11-28T05:27:55;1.38;;;1.08;;
42134;SDS011;28312;43.460;11.810;2022-11-28T05:31:58;2.50;;;1.55;;
42134;SDS011;28312;43.460;11.810;2022-11-28T05:36:05;2.58;;;1.50;;
42134;SDS011;28312;43.460;11.810;2022-11-28T05:40:15;1.85;;;1.00;;
42134;SDS011;28312;43.460;11.810;2022-11-28T05:44:21;1.90;;;1.27;;
42134;SDS011;28312;43.460;11.810;2022-11-28T05:48:29;2.97;;;1.20;;
42134;SDS011;28312;43.460;11.810;2022-11-28T05:52:32;2.20;;;1.10;;
42134;SDS011;28312;43.460;11.810;2022-11-28T05:56:36;2.58;;;1.70;;
42134;SDS011;28312;43.460;11.810;2022-11-28T06:00:44;1.25;;;0.88;;
42134;SDS011;28312;43.460;11.810;2022-11-28T06:04:47;1.60;;;1.02;;
42134;SDS011;28312;43.460;11.810;2022-11-28T06:08:51;1.55;;;1.10;;
42134;SDS011;28312;43.460;11.810;2022-11-28T06:12:55;1.70;;;0.88;;
42134;SDS011;28312;43.460;11.810;2022-11-28T06:16:58;1.75;;;1.15;;
42134;SDS011;28312;43.460;11.810;2022-11-28T06:21:02;3.25;;;1.70;;
42134;SDS011;28312;43.460;11.810;2022-11-28T06:25:07;1.35;;;0.90;;
42134;SDS011;28312;43.460;11.810;2022-11-28T06:29:11;1.35;;;0.90;;
42134;SDS011;28312;43.460;11.810;2022-11-28T06:33:14;1.50;;;0.90;;
42134;SDS011;28312;43.460;11.810;2022-11-28T06:37:18;1.80;;;1.25;;
42134;SDS011;28312;43.460;11.810;2022-11-28T06:41:21;1.55;;;1.23;;
42134;SDS011;28312;43.460;11.810;2022-11-28T06:45:26;2.03;;;1.13;;
42134;SDS011;28312;43.460;11.810;2022-11-28T06:49:30;1.88;;;1.23;;
42134;SDS011;28312;43.460;11.810;2022-11-28T06:53:33;2.22;;;1.17;;
42134;SDS011;28312;43.460;11.810;2022-11-28T06:57:38;2.47;;;1.38;;
42134;SDS011;28312;43.460;11.810;2022-11-28T07:01:41;1.85;;;0.80;;
42134;SDS011;28312;43.460;11.810;2022-11-28T07:05:46;1.92;;;1.20;;
42134;SDS011;28312;43.460;11.810;2022-11-28T07:09:50;1.25;;;0.68;;
42134;SDS011;28312;43.460;11.810;2022-11-28T07:13:54;1.55;;;0.80;;
42134;SDS011;28312;43.460;11.810;2022-11-28T07:17:58;1.48;;;1.00;;
42134;SDS011;28312;43.460;11.810;2022-11-28T07:22:02;1.40;;;0.65;;
42134;SDS011;28312;43.460;11.810;2022-11-28T07:26:06;1.00;;;0.77;;
42134;SDS011;28312;43.460;11.810;2022-11-28T07:30:10;1.55;;;0.73;;
42134;SDS011;28312;43.460;11.810;2022-11-28T07:34:14;1.77;;;0.80;;
42134;SDS011;28312;43.460;11.810;2022-11-28T07:38:17;1.23;;;0.68;;
42134;SDS011;28312;43.460;11.810;2022-11-28T07:42:21;0.88;;;0.68;;
42134;SDS011;28312;43.460;11.810;2022-11-28T07:46:37;1.60;;;0.70;;
42134;SDS011;28312;43.460;11.810;2022-11-28T07:50:42;0.90;;;0.60;;
42134;SDS011;28312;43.460;11.810;2022-11-28T07:54:47;1.67;;;0.73;;
42134;SDS011;28312;43.460;11.810;2022-11-28T07:58:51;2.08;;;1.23;;
42134;SDS011;28312;43.460;11.810;2022-11-28T08:02:55;2.15;;;1.15;;
42134;SDS011;28312;43.460;11.810;2022-11-28T08:06:59;1.40;;;0.90;;
42134;SDS011;28312;43.460;11.810;2022-11-28T08:11:03;3.72;;;0.98;;
42134;SDS011;28312;43.460;11.810;2022-11-28T08:15:09;1.15;;;0.70;;
42134;SDS011;28312;43.460;11.810;2022-11-28T08:19:13;1.92;;;1.15;;
42134;SDS011;28312;43.460;11.810;2022-11-28T08:23:18;1.25;;;0.50;;
42134;SDS011;28312;43.460;11.810;2022-11-28T08:27:22;1.25;;;0.63;;
42134;SDS011;28312;43.460;11.810;2022-11-28T08:31:36;1.27;;;0.70;;
42134;SDS011;28312;43.460;11.810;2022-11-28T08:35:40;1.10;;;0.70;;
42134;SDS011;28312;43.460;11.810;2022-11-28T08:39:44;1.05;;;0.60;;
42134;SDS011;28312;43.460;11.810;2022-11-28T08:43:47;1.85;;;0.82;;
42134;SDS011;28312;43.460;11.810;2022-11-28T08:47:51;1.95;;;1.20;;
42134;SDS011;28312;43.460;11.810;2022-11-28T08:51:55;1.30;;;0.70;;
42134;SDS011;28312;43.460;11.810;2022-11-28T08:55:58;1.38;;;0.73;;
42134;SDS011;28312;43.460;11.810;2022-11-28T09:00:02;1.42;;;0.70;;
42134;SDS011;28312;43.460;11.810;2022-11-28T09:04:07;2.13;;;1.20;;
42134;SDS011;28312;43.460;11.810;2022-11-28T09:08:11;1.15;;;0.70;;
42134;SDS011;28312;43.460;11.810;2022-11-28T09:12:16;1.92;;;0.73;;
42134;SDS011;28312;43.460;11.810;2022-11-28T09:16:19;0.80;;;0.60;;
42134;SDS011;28312;43.460;11.810;2022-11-28T09:20:23;1.10;;;0.65;;
42134;SDS011;28312;43.460;11.810;2022-11-28T09:24:27;5.50;;;1.55;;
42134;SDS011;28312;43.460;11.810;2022-11-28T09:28:30;1.55;;;0.90;;
42134;SDS011;28312;43.460;11.810;2022-11-28T09:32:35;0.95;;;0.57;;
42134;SDS011;28312;43.460;11.810;2022-11-28T09:36:39;2.42;;;0.93;;
42134;SDS011;28312;43.460;11.810;2022-11-28T09:40:43;2.67;;;1.48;;
42134;SDS011;28312;43.460;11.810;2022-11-28T09:44:48;2.42;;;1.15;;
42134;SDS011;28312;43.460;11.810;2022-11-28T09:49:02;1.73;;;1.02;;
42134;SDS011;28312;43.460;11.810;2022-11-28T09:57:41;2.78;;;1.23;;
42134;SDS011;28312;43.460;11.810;2022-11-28T10:11:10;23.65;;;11.65;;
42134;SDS011;28312;43.460;11.810;2022-11-28T10:15:36;9.35;;;5.22;;
42134;SDS011;28312;43.460;11.810;2022-11-28T10:19:43;5.82;;;3.75;;
42134;SDS011;28312;43.460;11.810;2022-11-28T10:23:59;4.13;;;2.78;;
42134;SDS011;28312;43.460;11.810;2022-11-28T10:28:17;3.85;;;2.72;;
42134;SDS011;28312;43.460;11.810;2022-11-28T10:32:28;5.85;;;2.63;;
42134;SDS011;28312;43.460;11.810;2022-11-28T10:36:58;3.15;;;1.90;;
42134;SDS011;28312;43.460;11.810;2022-11-28T10:41:12;3.38;;;2.22;;
42134;SDS011;28312;43.460;11.810;2022-11-28T10:45:24;3.70;;;2.15;;
42134;SDS011;28312;43.460;11.810;2022-11-28T10:54:42;3.20;;;2.03;;
42134;SDS011;28312;43.460;11.810;2022-11-28T11:02:51;3.22;;;2.05;;
42134;SDS011;28312;43.460;11.810;2022-11-28T11:07:00;3.53;;;1.98;;
42134;SDS011;28312;43.460;11.810;2022-11-28T11:11:28;2.50;;;1.40;;
42134;SDS011;28312;43.460;11.810;2022-11-28T11:15:36;2.92;;;1.70;;
42134;SDS011;28312;43.460;11.810;2022-11-28T11:19:40;1.90;;;1.38;;
42134;SDS011;28312;43.460;11.810;2022-11-28T11:23:44;1.95;;;1.25;;
42134;SDS011;28312;43.460;11.810;2022-11-28T11:27:52;3.95;;;2.40;;
42134;SDS011;28312;43.460;11.810;2022-11-28T11:32:03;2.83;;;1.67;;
42134;SDS011;28312;43.460;11.810;2022-11-28T11:36:27;3.20;;;1.75;;
42134;SDS011;28312;43.460;11.810;2022-11-28T11:40:36;2.85;;;1.30;;
42134;SDS011;28312;43.460;11.810;2022-11-28T11:44:39;4.38;;;2.15;;
42134;SDS011;28312;43.460;11.810;2022-11-28T11:48:49;2.97;;;1.63;;
42134;SDS011;28312;43.460;11.810;2022-11-28T11:57:07;6.85;;;3.28;;
42134;SDS011;28312;43.460;11.810;2022-11-28T12:01:33;2.88;;;1.38;;
42134;SDS011;28312;43.460;11.810;2022-11-28T12:05:54;4.72;;;1.85;;
42134;SDS011;28312;43.460;11.810;2022-11-28T12:10:17;2.58;;;1.40;;
42134;SDS011;28312;43.460;11.810;2022-11-28T12:23:27;1.70;;;1.00;;
42134;SDS011;28312;43.460;11.810;2022-11-28T12:27:46;3.50;;;1.30;;
42134;SDS011;28312;43.460;11.810;2022-11-28T12:32:20;5.15;;;1.33;;
42134;SDS011;28312;43.460;11.810;2022-11-28T12:36:35;3.75;;;1.67;;
42134;SDS011;28312;43.460;11.810;2022-11-28T12:49:54;3.00;;;1.48;;
42134;SDS011;28312;43.460;11.810;2022-11-28T12:54:28;2.97;;;1.52;;
42134;SDS011;28312;43.460;11.810;2022-11-28T12:58:43;3.63;;;1.93;;
42134;SDS011;28312;43.460;11.810;2022-11-28T13:24:26;2.53;;;1.67;;
42134;SDS011;28312;43.460;11.810;2022-11-28T13:46:21;3.95;;;2.10;;
42134;SDS011;28312;43.460;11.810;2022-11-28T13:58:49;3.92;;;1.77;;
42134;SDS011;28312;43.460;11.810;2022-11-28T14:02:55;3.22;;;1.52;;
42134;SDS011;28312;43.460;11.810;2022-11-28T14:07:02;3.53;;;1.65;;
42134;SDS011;28312;43.460;11.810;2022-11-28T14:15:49;5.15;;;2.20;;
42134;SDS011;28312;43.460;11.810;2022-11-28T14:24:15;7.43;;;3.72;;
42134;SDS011;28312;43.460;11.810;2022-11-28T14:28:29;7.55;;;2.67;;
42134;SDS011;28312;43.460;11.810;2022-11-28T14:32:39;9.15;;;5.82;;
42134;SDS011;28312;43.460;11.810;2022-11-28T14:36:45;7.30;;;3.78;;
42134;SDS011;28312;43.460;11.810;2022-11-28T14:44:59;14.85;;;7.40;;
42134;SDS011;28312;43.460;11.810;2022-11-28T14:49:14;18.58;;;12.85;;
42134;SDS011;28312;43.460;11.810;2022-11-28T14:57:53;7.45;;;4.90;;
42134;SDS011;28312;43.460;11.810;2022-11-28T15:06:18;9.65;;;5.05;;
42134;SDS011;28312;43.460;11.810;2022-11-28T15:10:50;12.85;;;4.55;;
42134;SDS011;28312;43.460;11.810;2022-11-28T15:15:11;12.15;;;4.82;;
42134;SDS011;28312;43.460;11.810;2022-11-28T15:19:21;6.18;;;3.40;;
42134;SDS011;28312;43.460;11.810;2022-11-28T15:23:29;5.32;;;3.15;;
42134;SDS011;28312;43.460;11.810;2022-11-28T15:27:37;6.43;;;4.32;;
42134;SDS011;28312;43.460;11.810;2022-11-28T15:31:40;9.13;;;5.95;;
42134;SDS011;28312;43.460;11.810;2022-11-28T15:35:53;11.02;;;7.15;;
42134;SDS011;28312;43.460;11.810;2022-11-28T15:39:58;5.90;;;3.30;;
42134;SDS011;28312;43.460;11.810;2022-11-28T15:44:10;3.88;;;3.00;;
42134;SDS011;28312;43.460;11.810;2022-11-28T15:48:24;5.53;;;3.00;;
42134;SDS011;28312;43.460;11.810;2022-11-28T15:52:58;6.88;;;3.42;;
42134;SDS011;28312;43.460;11.810;2022-11-28T15:57:22;5.95;;;3.50;;
42134;SDS011;28312;43.460;11.810;2022-11-28T16:01:29;4.18;;;2.83;;
42134;SDS011;28312;43.460;11.810;2022-11-28T16:05:36;3.75;;;2.20;;
42134;SDS011;28312;43.460;11.810;2022-11-28T16:09:48;9.32;;;5.05;;
42134;SDS011;28312;43.460;11.810;2022-11-28T16:13:59;5.57;;;3.22;;
42134;SDS011;28312;43.460;11.810;2022-11-28T16:18:12;8.65;;;4.68;;
42134;SDS011;28312;43.460;11.810;2022-11-28T16:22:17;5.65;;;3.38;;
42134;SDS011;28312;43.460;11.810;2022-11-28T16:26:32;6.27;;;4.07;;
42134;SDS011;28312;43.460;11.810;2022-11-28T16:30:40;5.47;;;4.38;;
42134;SDS011;28312;43.460;11.810;2022-11-28T16:34:53;4.68;;;2.08;;
42134;SDS011;28312;43.460;11.810;2022-11-28T16:44:17;6.90;;;3.47;;
42134;SDS011;28312;43.460;11.810;2022-11-28T16:48:13;12.23;;;8.60;;
42134;SDS011;28312;43.460;11.810;2022-11-28T17:00:34;7.65;;;3.58;;
42134;SDS011;28312;43.460;11.810;2022-11-28T17:04:41;9.77;;;4.47;;
42134;SDS011;28312;43.460;11.810;2022-11-28T17:08:46;7.93;;;2.70;;
42134;SDS011;28312;43.460;11.810;2022-11-28T17:12:50;6.22;;;2.55;;
42134;SDS011;28312;43.460;11.810;2022-11-28T17:16:54;5.65;;;2.65;;
42134;SDS011;28312;43.460;11.810;2022-11-28T17:20:57;3.30;;;2.13;;
42134;SDS011;28312;43.460;11.810;2022-11-28T17:25:01;5.43;;;2.35;;
42134;SDS011;28312;43.460;11.810;2022-11-28T17:29:09;4.75;;;2.70;;
42134;SDS011;28312;43.460;11.810;2022-11-28T17:33:13;6.07;;;4.70;;
42134;SDS011;28312;43.460;11.810;2022-11-28T17:37:18;7.53;;;3.65;;
42134;SDS011;28312;43.460;11.810;2022-11-28T17:41:21;5.13;;;3.13;;
42134;SDS011;28312;43.460;11.810;2022-11-28T17:45:27;5.05;;;2.80;;
42134;SDS011;28312;43.460;11.810;2022-11-28T17:49:34;2.75;;;2.15;;
42134;SDS011;28312;43.460;11.810;2022-11-28T17:53:37;3.55;;;2.08;;
42134;SDS011;28312;43.460;11.810;2022-11-28T17:57:41;4.05;;;1.98;;
42134;SDS011;28312;43.460;11.810;2022-11-28T18:01:46;11.05;;;2.83;;
42134;SDS011;28312;43.460;11.810;2022-11-28T18:05:50;3.88;;;2.03;;
42134;SDS011;28312;43.460;11.810;2022-11-28T18:09:54;6.05;;;3.00;;
42134;SDS011;28312;43.460;11.810;2022-11-28T18:13:58;4.25;;;2.08;;
42134;SDS011;28312;43.460;11.810;2022-11-28T18:18:02;3.90;;;1.90;;
42134;SDS011;28312;43.460;11.810;2022-11-28T18:22:06;3.95;;;2.00;;
42134;SDS011;28312;43.460;11.810;2022-11-28T18:26:11;7.30;;;3.92;;
42134;SDS011;28312;43.460;11.810;2022-11-28T18:30:16;4.05;;;2.58;;
42134;SDS011;28312;43.460;11.810;2022-11-28T18:34:20;9.82;;;5.68;;
42134;SDS011;28312;43.460;11.810;2022-11-28T18:38:24;10.80;;;4.45;;
42134;SDS011;28312;43.460;11.810;2022-11-28T18:42:27;8.95;;;6.82;;
42134;SDS011;28312;43.460;11.810;2022-11-28T18:46:33;7.75;;;4.63;;
42134;SDS011;28312;43.460;11.810;2022-11-28T18:50:39;7.43;;;4.25;;
42134;SDS011;28312;43.460;11.810;2022-11-28T18:54:43;7.78;;;5.72;;
42134;SDS011;28312;43.460;11.810;2022-11-28T18:58:48;6.90;;;3.40;;
42134;SDS011;28312;43.460;11.810;2022-11-28T19:06:57;3.35;;;2.50;;
42134;SDS011;28312;43.460;11.810;2022-11-28T19:11:05;4.00;;;2.65;;
42134;SDS011;28312;43.460;11.810;2022-11-28T19:15:15;5.35;;;3.08;;
42134;SDS011;28312;43.460;11.810;2022-11-28T19:19:18;4.50;;;2.88;;
42134;SDS011;28312;43.460;11.810;2022-11-28T19:23:23;3.65;;;2.10;;
42134;SDS011;28312;43.460;11.810;2022-11-28T19:27:27;5.93;;;2.70;;
42134;SDS011;28312;43.460;11.810;2022-11-28T19:31:31;4.60;;;2.38;;
42134;SDS011;28312;43.460;11.810;2022-11-28T19:35:38;9.10;;;5.93;;
42134;SDS011;28312;43.460;11.810;2022-11-28T19:39:42;7.28;;;5.97;;
42134;SDS011;28312;43.460;11.810;2022-11-28T19:43:47;5.55;;;3.97;;
42134;SDS011;28312;43.460;11.810;2022-11-28T19:47:53;3.93;;;2.27;;
42134;SDS011;28312;43.460;11.810;2022-11-28T19:51:57;5.43;;;3.53;;
42134;SDS011;28312;43.460;11.810;2022-11-28T19:56:02;7.68;;;5.63;;
42134;SDS011;28312;43.460;11.810;2022-11-28T20:00:07;5.77;;;3.33;;
42134;SDS011;28312;43.460;11.810;2022-11-28T20:04:15;4.50;;;2.55;;
42134;SDS011;28312;43.460;11.810;2022-11-28T20:08:18;2.78;;;1.90;;
42134;SDS011;28312;43.460;11.810;2022-11-28T20:12:23;2.83;;;2.00;;
42134;SDS011;28312;43.460;11.810;2022-11-28T20:16:28;3.60;;;2.65;;
42134;SDS011;28312;43.460;11.810;2022-11-28T20:20:33;3.63;;;2.38;;
42134;SDS011;28312;43.460;11.810;2022-11-28T20:24:37;3.08;;;1.63;;
42134;SDS011;28312;43.460;11.810;2022-11-28T20:28:41;4.35;;;3.78;;
42134;SDS011;28312;43.460;11.810;2022-11-28T20:32:47;2.47;;;1.60;;
42134;SDS011;28312;43.460;11.810;2022-11-28T20:36:50;3.08;;;1.90;;
42134;SDS011;28312;43.460;11.810;2022-11-28T20:41:01;2.20;;;1.27;;
42134;SDS011;28312;43.460;11.810;2022-11-28T20:45:06;2.92;;;1.60;;
42134;SDS011;28312;43.460;11.810;2022-11-28T20:49:14;4.97;;;1.60;;
42134;SDS011;28312;43.460;11.810;2022-11-28T20:53:18;4.63;;;2.15;;
42134;SDS011;28312;43.460;11.810;2022-11-28T20:57:28;1.90;;;1.10;;
42134;SDS011;28312;43.460;11.810;2022-11-28T21:01:33;3.25;;;1.92;;
42134;SDS011;28312;43.460;11.810;2022-11-28T21:05:38;2.97;;;2.00;;
42134;SDS011;28312;43.460;11.810;2022-11-28T21:09:42;6.45;;;4.80;;
42134;SDS011;28312;43.460;11.810;2022-11-28T21:13:46;4.65;;;2.60;;
42134;SDS011;28312;43.460;11.810;2022-11-28T21:17:51;3.28;;;2.40;;
42134;SDS011;28312;43.460;11.810;2022-11-28T21:21:54;4.03;;;1.90;;
42134;SDS011;28312;43.460;11.810;2022-11-28T21:26:01;4.88;;;2.58;;
42134;SDS011;28312;43.460;11.810;2022-11-28T21:30:10;2.35;;;1.40;;
42134;SDS011;28312;43.460;11.810;2022-11-28T21:34:15;2.60;;;1.45;;
42134;SDS011;28312;43.460;11.810;2022-11-28T21:38:21;2.17;;;1.40;;
42134;SDS011;28312;43.460;11.810;2022-11-28T21:42:24;3.10;;;1.25;;
42134;SDS011;28312;43.460;11.810;2022-11-28T21:46:28;2.33;;;1.40;;
42134;SDS011;28312;43.460;11.810;2022-11-28T21:50:43;1.92;;;1.13;;
42134;SDS011;28312;43.460;11.810;2022-11-28T21:54:58;2.50;;;1.40;;
42134;SDS011;28312;43.460;11.810;2022-11-28T21:59:02;3.50;;;1.35;;
42134;SDS011;28312;43.460;11.810;2022-11-28T22:03:06;1.88;;;1.10;;
42134;SDS011;28312;43.460;11.810;2022-11-28T22:07:16;2.90;;;1.50;;
42134;SDS011;28312;43.460;11.810;2022-11-28T22:11:20;1.65;;;1.05;;
42134;SDS011;28312;43.460;11.810;2022-11-28T22:15:25;2.10;;;1.20;;
42134;SDS011;28312;43.460;11.810;2022-11-28T22:19:29;4.05;;;1.50;;
42134;SDS011;28312;43.460;11.810;2022-11-28T22:23:33;1.58;;;1.02;;
42134;SDS011;28312;43.460;11.810;2022-11-28T22:27:38;2.80;;;1.08;;
42134;SDS011;28312;43.460;11.810;2022-11-28T22:31:42;1.92;;;1.13;;
42134;SDS011;28312;43.460;11.810;2022-11-28T22:35:46;3.15;;;1.10;;
42134;SDS011;28312;43.460;11.810;2022-11-28T22:39:50;3.75;;;1.45;;
42134;SDS011;28312;43.460;11.810;2022-11-28T22:43:56;3.95;;;1.58;;
42134;SDS011;28312;43.460;11.810;2022-11-28T22:48:03;1.92;;;1.02;;
42134;SDS011;28312;43.460;11.810;2022-11-28T22:52:11;4.25;;;2.38;;
42134;SDS011;28312;43.460;11.810;2022-11-28T22:56:15;4.00;;;1.70;;
42134;SDS011;28312;43.460;11.810;2022-11-28T23:00:18;3.33;;;1.75;;
42134;SDS011;28312;43.460;11.810;2022-11-28T23:04:22;2.42;;;1.30;;
42134;SDS011;28312;43.460;11.810;2022-11-28T23:08:27;1.88;;;1.02;;
42134;SDS011;28312;43.460;11.810;2022-11-28T23:12:31;2.95;;;1.90;;
42134;SDS011;28312;43.460;11.810;2022-11-28T23:16:36;2.40;;;1.23;;
42134;SDS011;28312;43.460;11.810;2022-11-28T23:20:42;1.42;;;0.80;;
42134;SDS011;28312;43.460;11.810;2022-11-28T23:24:46;2.40;;;1.05;;
42134;SDS011;28312;43.460;11.810;2022-11-28T23:28:50;2.25;;;1.15;;
42134;SDS011;28312;43.460;11.810;2022-11-28T23:32:54;1.40;;;0.88;;
42134;SDS011;28312;43.460;11.810;2022-11-28T23:36:57;2.25;;;1.20;;
42134;SDS011;28312;43.460;11.810;2022-11-28T23:41:01;1.85;;;0.70;;
42134;SDS011;28312;43.460;11.810;2022-11-28T23:45:05;1.73;;;0.85;;
42134;SDS011;28312;43.460;11.810;2022-11-28T23:49:09;1.52;;;0.70;;
42134;SDS011;28312;43.460;11.810;2022-11-28T23:53:13;2.15;;;1.27;;
42134;SDS011;28312;43.460;11.810;2022-11-28T23:57:17;1.35;;;0.80;;
